Time;durP1;ratioP1;P1;durP2;ratioP2;P2;SDS_P1;SDS_P2;PMS_P1;PMS_P2;Temp;Humidity;BMP_temperature;BMP_pressure;BME280_temperature;BME280_humidity;BME280_pressure;Samples;Min_cycle;Max_cycle;Signal;HPM_P1;HPM_P2
2022/09/19 00:01:42;;;;;;;2.67;1.70;;;;;;;;;;5004189;28;20455;-66
2022/09/19 00:04:10;;;;;;;5.78;1.83;;;;;;;;;;5006984;28;20030;-66
2022/09/19 00:06:37;;;;;;;3.85;1.70;;;;;;;;;;5010127;28;20033;-66
2022/09/19 00:09:05;;;;;;;5.97;1.48;;;;;;;;;;5007808;28;20089;-66
2022/09/19 00:11:31;;;;;;;4.28;2.00;;;;;;;;;;5006348;28;20026;-66
2022/09/19 00:13:59;;;;;;;3.40;1.80;;;;;;;;;;5007464;28;20033;-66
2022/09/19 00:16:30;;;;;;;3.60;1.88;;;;;;;;;;5016458;28;20509;-66
2022/09/19 00:18:58;;;;;;;2.25;2.05;;;;;;;;;;5012950;28;20026;-66
2022/09/19 00:21:34;;;;;;;4.90;2.05;;;;;;;;;;5019219;28;20025;-66
2022/09/19 00:26:48;;;;;;;3.70;2.05;;;;;;;;;;5017408;28;20037;-66
2022/09/19 00:29:15;;;;;;;3.95;1.83;;;;;;;;;;5011639;28;20026;-66
2022/09/19 00:31:43;;;;;;;5.25;1.90;;;;;;;;;;5011506;28;20582;-66
2022/09/19 00:34:09;;;;;;;3.53;1.67;;;;;;;;;;5012888;28;20029;-66
2022/09/19 00:36:36;;;;;;;5.43;2.97;;;;;;;;;;5012488;28;20034;-66
2022/09/19 00:39:03;;;;;;;2.95;1.85;;;;;;;;;;5013072;28;20394;-66
2022/09/19 00:41:30;;;;;;;3.92;1.60;;;;;;;;;;5022983;28;20510;-66
2022/09/19 00:43:58;;;;;;;11.13;2.47;;;;;;;;;;5012755;28;20033;-66
2022/09/19 00:46:25;;;;;;;2.50;1.63;;;;;;;;;;5006861;28;20038;-66
2022/09/19 00:48:55;;;;;;;5.05;1.77;;;;;;;;;;5013972;28;20028;-66
2022/09/19 00:51:32;;;;;;;3.30;1.80;;;;;;;;;;5012691;28;20228;-66
2022/09/19 00:54:18;;;;;;;4.72;1.80;;;;;;;;;;5012347;28;20058;-66
2022/09/19 00:56:47;;;;;;;2.60;1.52;;;;;;;;;;5013142;28;20386;-66
2022/09/19 00:59:14;;;;;;;2.50;1.60;;;;;;;;;;5021752;28;20112;-66
2022/09/19 01:01:40;;;;;;;2.85;2.00;;;;;;;;;;5012364;28;20139;-66
2022/09/19 01:04:20;;;;;;;4.28;1.98;;;;;;;;;;5012698;28;20442;-66
2022/09/19 01:07:07;;;;;;;4.93;2.00;;;;;;;;;;5012061;28;20030;-66
2022/09/19 01:09:52;;;;;;;5.90;2.15;;;;;;;;;;5013713;28;20038;-66
2022/09/19 01:12:31;;;;;;;4.25;2.03;;;;;;;;;;5011982;28;20399;-66
2022/09/19 01:14:58;;;;;;;3.78;2.00;;;;;;;;;;5012066;28;20041;-66
2022/09/19 01:17:33;;;;;;;4.53;2.00;;;;;;;;;;5027329;28;20036;-66
2022/09/19 01:19:59;;;;;;;6.88;1.90;;;;;;;;;;5000513;28;20045;-66
2022/09/19 01:22:29;;;;;;;8.90;2.00;;;;;;;;;;5021587;28;20021;-66
2022/09/19 01:25:02;;;;;;;5.78;1.92;;;;;;;;;;5027127;28;20473;-66
2022/09/19 01:27:28;;;;;;;;;;;;;;;;;;5020678;28;20026;-66
2022/09/19 01:30:01;;;;;;;4.03;1.80;;;;;;;;;;5016367;28;20335;-66
2022/09/19 01:32:42;;;;;;;2.97;1.70;;;;;;;;;;5011814;28;20037;-66
2022/09/19 01:35:10;;;;;;;4.78;1.98;;;;;;;;;;5010632;28;20490;-66
2022/09/19 01:38:00;;;;;;;3.60;2.00;;;;;;;;;;5010304;28;20026;-66
2022/09/19 01:40:27;;;;;;;2.95;1.63;;;;;;;;;;5010342;28;20092;-66
2022/09/19 01:42:59;;;;;;;4.63;2.22;;;;;;;;;;5010618;28;20034;-66
2022/09/19 01:45:36;;;;;;;3.17;2.53;;;;;;;;;;5031541;28;20057;-66
2022/09/19 01:48:21;;;;;;;3.63;1.92;;;;;;;;;;5029305;28;20056;-66
2022/09/19 01:51:01;;;;;;;3.60;1.88;;;;;;;;;;5014819;28;20050;-66
2022/09/19 01:53:46;;;;;;;1.95;1.70;;;;;;;;;;5026695;28;20034;-66
2022/09/19 01:56:37;;;;;;;5.38;1.67;;;;;;;;;;5026581;28;20494;-66
2022/09/19 01:59:13;;;;;;;3.17;1.55;;;;;;;;;;5027272;28;20030;-66
2022/09/19 02:01:45;;;;;;;5.32;1.92;;;;;;;;;;5039105;28;20030;-66
2022/09/19 02:04:19;;;;;;;3.97;1.80;;;;;;;;;;5027024;28;20429;-66
2022/09/19 02:07:07;;;;;;;2.42;1.50;;;;;;;;;;5009926;28;20573;-66
2022/09/19 02:09:40;;;;;;;3.67;1.75;;;;;;;;;;5026528;28;20046;-66
2022/09/19 02:12:07;;;;;;;4.15;1.63;;;;;;;;;;5026654;28;20046;-66
2022/09/19 02:14:37;;;;;;;2.25;1.38;;;;;;;;;;5026365;28;20025;-66
2022/09/19 02:17:15;;;;;;;1.80;1.50;;;;;;;;;;5029665;28;20034;-66
2022/09/19 02:19:48;;;;;;;2.97;1.63;;;;;;;;;;5010086;28;20495;-66
2022/09/19 02:22:23;;;;;;;3.43;1.50;;;;;;;;;;5000808;28;20033;-66
2022/09/19 02:24:51;;;;;;;2.75;1.73;;;;;;;;;;5030892;28;20288;-66
2022/09/19 02:27:20;;;;;;;1.88;1.33;;;;;;;;;;5037779;28;20541;-66
2022/09/19 02:29:53;;;;;;;3.00;1.85;;;;;;;;;;5009691;28;20514;-66
2022/09/19 02:32:21;;;;;;;3.97;1.73;;;;;;;;;;5013783;28;20410;-66
2022/09/19 02:34:50;;;;;;;3.35;1.60;;;;;;;;;;5014704;28;20030;-66
2022/09/19 02:37:21;;;;;;;4.00;1.27;;;;;;;;;;5008144;28;20457;-66
2022/09/19 02:39:50;;;;;;;2.78;1.63;;;;;;;;;;5004054;28;20458;-66
2022/09/19 02:42:34;;;;;;;4.27;1.60;;;;;;;;;;5004468;28;20026;-66
2022/09/19 02:45:19;;;;;;;2.05;1.52;;;;;;;;;;5005413;28;20557;-66
2022/09/19 02:48:07;;;;;;;3.90;1.50;;;;;;;;;;5029875;28;20022;-66
2022/09/19 02:50:39;;;;;;;2.08;1.48;;;;;;;;;;5004943;28;20034;-66
2022/09/19 02:53:09;;;;;;;2.83;1.77;;;;;;;;;;5046099;28;20506;-66
2022/09/19 02:55:44;;;;;;;1.85;1.50;;;;;;;;;;4994408;28;20026;-66
2022/09/19 02:58:11;;;;;;;2.08;1.58;;;;;;;;;;5024933;28;20413;-66
2022/09/19 03:00:38;;;;;;;5.43;1.67;;;;;;;;;;5013399;28;20030;-66
2022/09/19 03:05:58;;;;;;;2.00;1.20;;;;;;;;;;5025795;28;20041;-66
2022/09/19 03:08:25;;;;;;;3.03;1.60;;;;;;;;;;5006377;28;20498;-66
2022/09/19 03:10:55;;;;;;;1.63;1.50;;;;;;;;;;5007616;28;20041;-66
2022/09/19 03:13:33;;;;;;;1.88;1.70;;;;;;;;;;4995101;28;20022;-66
2022/09/19 03:16:05;;;;;;;3.45;1.70;;;;;;;;;;4999762;28;20521;-66
2022/09/19 03:18:36;;;;;;;2.85;1.48;;;;;;;;;;5007567;28;20025;-66
2022/09/19 03:21:04;;;;;;;2.42;1.38;;;;;;;;;;5014990;28;20041;-66
2022/09/19 03:23:33;;;;;;;3.75;1.30;;;;;;;;;;5008221;28;20030;-66
2022/09/19 03:26:01;;;;;;;1.92;1.38;;;;;;;;;;5002247;28;20042;-66
2022/09/19 03:28:28;;;;;;;2.88;1.98;;;;;;;;;;5030798;28;20105;-66
2022/09/19 03:30:59;;;;;;;2.13;1.38;;;;;;;;;;5012592;28;20029;-66
2022/09/19 03:33:26;;;;;;;3.40;1.85;;;;;;;;;;4998536;28;20115;-66
2022/09/19 03:35:56;;;;;;;1.73;1.55;;;;;;;;;;5040637;28;20026;-66
2022/09/19 03:38:22;;;;;;;3.40;1.67;;;;;;;;;;5016511;28;20433;-66
2022/09/19 03:40:49;;;;;;;4.30;2.20;;;;;;;;;;5001493;28;20033;-66
2022/09/19 03:43:17;;;;;;;3.22;1.70;;;;;;;;;;5001454;28;20026;-66
2022/09/19 03:45:43;;;;;;;4.22;1.85;;;;;;;;;;5009164;28;20076;-66
2022/09/19 03:48:10;;;;;;;3.13;1.70;;;;;;;;;;5011671;28;20022;-66
2022/09/19 03:50:36;;;;;;;3.70;1.75;;;;;;;;;;5008111;28;20017;-66
2022/09/19 03:53:11;;;;;;;3.60;1.63;;;;;;;;;;5003988;28;20033;-66
2022/09/19 03:55:38;;;;;;;3.92;1.73;;;;;;;;;;5017871;28;20034;-66
2022/09/19 03:58:05;;;;;;;3.15;1.60;;;;;;;;;;5044548;28;20061;-66
2022/09/19 04:00:32;;;;;;;5.85;1.98;;;;;;;;;;5026112;28;20041;-66
2022/09/19 04:02:58;;;;;;;2.85;1.38;;;;;;;;;;5007198;28;20073;-66
2022/09/19 04:05:26;;;;;;;2.28;1.55;;;;;;;;;;5025089;28;20034;-66
2022/09/19 04:07:54;;;;;;;5.15;1.70;;;;;;;;;;5039139;28;20034;-66
2022/09/19 04:10:21;;;;;;;2.38;1.50;;;;;;;;;;5044063;28;20057;-66
2022/09/19 04:12:48;;;;;;;4.18;1.70;;;;;;;;;;5009742;28;20037;-66
2022/09/19 04:15:15;;;;;;;3.97;1.55;;;;;;;;;;5010694;28;20049;-66
2022/09/19 04:17:42;;;;;;;4.03;2.00;;;;;;;;;;5028446;28;20017;-66
2022/09/19 04:20:12;;;;;;;5.32;1.60;;;;;;;;;;5026154;28;20033;-66
2022/09/19 04:22:54;;;;;;;3.13;1.65;;;;;;;;;;5008824;28;20041;-66
2022/09/19 04:25:29;;;;;;;2.35;1.50;;;;;;;;;;5007777;28;20042;-66
2022/09/19 04:28:05;;;;;;;2.38;1.60;;;;;;;;;;4998242;28;20030;-66
2022/09/19 04:30:36;;;;;;;2.83;1.70;;;;;;;;;;5002912;28;20451;-66
2022/09/19 04:33:04;;;;;;;3.95;1.88;;;;;;;;;;5009015;28;20030;-66
2022/09/19 04:35:35;;;;;;;3.42;1.67;;;;;;;;;;5010735;28;20034;-66
2022/09/19 04:38:03;;;;;;;3.15;1.40;;;;;;;;;;5004425;28;20045;-66
2022/09/19 04:40:29;;;;;;;1.60;1.50;;;;;;;;;;5003730;28;20038;-66
2022/09/19 04:42:57;;;;;;;2.95;1.55;;;;;;;;;;5006343;28;20090;-66
2022/09/19 04:45:23;;;;;;;1.73;1.52;;;;;;;;;;5000547;28;20050;-66
2022/09/19 04:48:10;;;;;;;3.03;1.60;;;;;;;;;;5008695;28;20037;-66
2022/09/19 04:50:36;;;;;;;3.78;1.88;;;;;;;;;;5011147;28;20028;-66
2022/09/19 04:53:03;;;;;;;3.97;1.48;;;;;;;;;;5002754;28;20169;-66
2022/09/19 04:55:30;;;;;;;4.85;2.40;;;;;;;;;;5004630;28;20037;-66
2022/09/19 04:57:57;;;;;;;2.63;1.63;;;;;;;;;;5007704;28;20127;-66
2022/09/19 05:00:39;;;;;;;2.42;1.55;;;;;;;;;;5025586;28;20057;-65
2022/09/19 05:03:12;;;;;;;3.10;1.70;;;;;;;;;;5008025;28;20049;-65
2022/09/19 05:05:44;;;;;;;5.57;1.98;;;;;;;;;;5024432;28;20034;-66
2022/09/19 05:08:15;;;;;;;3.03;2.00;;;;;;;;;;5010367;28;20378;-66
2022/09/19 05:10:46;;;;;;;3.45;1.60;;;;;;;;;;5003048;28;20046;-66
2022/09/19 05:13:13;;;;;;;4.80;1.95;;;;;;;;;;5009582;28;20018;-66
2022/09/19 05:15:41;;;;;;;2.60;1.75;;;;;;;;;;5012471;28;20065;-66
2022/09/19 05:18:10;;;;;;;6.32;1.50;;;;;;;;;;5025621;28;20038;-66
2022/09/19 05:20:37;;;;;;;2.10;1.65;;;;;;;;;;5038581;28;20034;-66
2022/09/19 05:23:04;;;;;;;3.70;1.80;;;;;;;;;;5009216;28;20030;-66
2022/09/19 05:25:30;;;;;;;1.90;1.60;;;;;;;;;;5026089;28;20180;-66
2022/09/19 05:27:59;;;;;;;2.97;1.85;;;;;;;;;;5042613;28;20064;-66
2022/09/19 05:30:26;;;;;;;3.92;2.35;;;;;;;;;;5024124;28;20029;-66
2022/09/19 05:32:54;;;;;;;3.88;2.10;;;;;;;;;;5005695;28;20117;-66
2022/09/19 05:35:31;;;;;;;4.22;2.10;;;;;;;;;;5010325;28;20490;-66
2022/09/19 05:38:13;;;;;;;4.50;1.88;;;;;;;;;;5023099;28;20533;-66
2022/09/19 05:41:16;;;;;;;3.72;2.28;;;;;;;;;;5006257;28;20042;-66
2022/09/19 05:43:56;;;;;;;5.43;2.00;;;;;;;;;;5007624;28;20041;-66
2022/09/19 05:46:23;;;;;;;6.47;3.20;;;;;;;;;;4991142;28;20045;-66
2022/09/19 05:48:54;;;;;;;3.55;1.90;;;;;;;;;;5009200;28;20141;-66
2022/09/19 05:51:20;;;;;;;3.10;2.00;;;;;;;;;;5008552;28;20026;-66
2022/09/19 05:53:52;;;;;;;3.20;1.90;;;;;;;;;;5009839;28;20060;-66
2022/09/19 05:56:37;;;;;;;14.90;3.90;;;;;;;;;;5008489;28;20064;-66
2022/09/19 05:59:05;;;;;;;7.68;2.38;;;;;;;;;;5008996;28;20038;-66
2022/09/19 06:01:33;;;;;;;4.40;1.98;;;;;;;;;;4990361;28;20044;-66
2022/09/19 06:04:01;;;;;;;2.83;2.17;;;;;;;;;;4993095;28;20029;-66
2022/09/19 06:06:29;;;;;;;11.13;2.85;;;;;;;;;;4993733;28;20109;-66
2022/09/19 06:08:56;;;;;;;4.22;2.30;;;;;;;;;;4991013;28;20473;-66
2022/09/19 06:11:23;;;;;;;6.18;2.50;;;;;;;;;;4994071;28;20041;-65
2022/09/19 06:16:37;;;;;;;7.07;3.00;;;;;;;;;;5013017;28;20494;-65
2022/09/19 06:19:29;;;;;;;3.40;2.25;;;;;;;;;;5007611;28;20082;-65
2022/09/19 06:22:09;;;;;;;14.70;2.65;;;;;;;;;;4995606;28;20132;-65
2022/09/19 06:24:36;;;;;;;6.80;2.65;;;;;;;;;;5007371;28;20046;-65
2022/09/19 06:27:05;;;;;;;3.67;2.58;;;;;;;;;;4991916;28;20030;-65
2022/09/19 06:29:31;;;;;;;3.25;2.17;;;;;;;;;;4983907;28;20389;-65
2022/09/19 06:32:23;;;;;;;4.03;2.50;;;;;;;;;;4917347;29;20412;-65
2022/09/19 06:35:07;;;;;;;4.95;2.90;;;;;;;;;;4926234;29;20564;-65
2022/09/19 06:37:35;;;;;;;4.57;2.15;;;;;;;;;;4920280;29;20130;-71
2022/09/19 06:40:01;;;;;;;5.63;2.42;;;;;;;;;;4933762;29;20047;-65
2022/09/19 06:42:46;;;;;;;3.78;2.28;;;;;;;;;;4921881;29;20050;-65
2022/09/19 06:45:34;;;;;;;8.23;2.65;;;;;;;;;;4917033;29;20076;-65
2022/09/19 06:48:39;;;;;;;4.45;2.50;;;;;;;;;;4917562;29;20044;-64
2022/09/19 06:51:28;;;;;;;3.38;2.28;;;;;;;;;;4922297;29;20088;-64
2022/09/19 06:53:54;;;;;;;8.20;2.88;;;;;;;;;;4924054;29;20056;-65
2022/09/19 06:56:20;;;;;;;3.75;2.42;;;;;;;;;;4951053;28;20047;-65
2022/09/19 06:58:47;;;;;;;6.03;2.40;;;;;;;;;;4950633;28;20061;-65
2022/09/19 07:01:15;;;;;;;5.47;2.50;;;;;;;;;;4952117;28;20090;-70
2022/09/19 07:03:41;;;;;;;10.63;3.15;;;;;;;;;;4935280;29;20610;-70
2022/09/19 07:06:08;;;;;;;7.82;3.42;;;;;;;;;;4930965;29;20031;-70
2022/09/19 07:08:42;;;;;;;5.65;2.75;;;;;;;;;;4952462;28;20073;-70
2022/09/19 07:11:10;;;;;;;7.68;2.83;;;;;;;;;;5039566;28;20081;-70
2022/09/19 07:13:43;;;;;;;9.95;3.38;;;;;;;;;;5026277;28;20026;-70
2022/09/19 07:16:10;;;;;;;4.93;2.95;;;;;;;;;;5006951;28;20571;-70
2022/09/19 07:18:38;;;;;;;6.13;2.72;;;;;;;;;;5006090;28;20084;-70
2022/09/19 07:21:25;;;;;;;8.80;4.68;;;;;;;;;;5005908;28;20038;-70
2022/09/19 07:23:54;;;;;;;5.50;3.17;;;;;;;;;;5007113;28;20076;-70
2022/09/19 07:26:30;;;;;;;9.77;3.40;;;;;;;;;;5037680;28;20105;-70
2022/09/19 07:28:57;;;;;;;5.18;3.70;;;;;;;;;;5042096;28;20656;-70
2022/09/19 07:31:23;;;;;;;5.05;3.97;;;;;;;;;;5003012;28;20101;-70
2022/09/19 07:33:49;;;;;;;9.95;3.60;;;;;;;;;;5000005;28;20505;-70
2022/09/19 07:36:16;;;;;;;8.27;4.05;;;;;;;;;;5037591;28;20030;-70
2022/09/19 07:38:45;;;;;;;5.45;4.18;;;;;;;;;;5011242;28;20426;-70
2022/09/19 07:41:30;;;;;;;8.90;4.68;;;;;;;;;;4999321;28;20161;-71
2022/09/19 07:44:22;;;;;;;8.30;4.88;;;;;;;;;;5004237;28;20458;-70
2022/09/19 07:47:29;;;;;;;8.27;4.35;;;;;;;;;;5010404;28;20053;-67
2022/09/19 07:50:14;;;;;;;7.22;4.18;;;;;;;;;;4999640;28;20022;-67
2022/09/19 07:52:57;;;;;;;9.18;3.92;;;;;;;;;;5010829;28;20739;-67
2022/09/19 07:55:25;;;;;;;8.88;3.85;;;;;;;;;;4999868;28;20046;-67
2022/09/19 07:57:52;;;;;;;7.53;4.13;;;;;;;;;;5005899;28;20069;-67
2022/09/19 08:00:25;;;;;;;8.63;4.40;;;;;;;;;;5007229;28;20029;-67
2022/09/19 08:02:54;;;;;;;5.72;4.40;;;;;;;;;;5002344;28;20034;-67
2022/09/19 08:05:21;;;;;;;8.98;4.05;;;;;;;;;;5002732;28;20078;-67
2022/09/19 08:07:49;;;;;;;9.88;4.70;;;;;;;;;;5001224;28;20399;-67
2022/09/19 08:10:15;;;;;;;8.15;4.00;;;;;;;;;;5005036;28;20449;-67
2022/09/19 08:12:45;;;;;;;11.43;4.03;;;;;;;;;;5003203;28;20037;-67
2022/09/19 08:15:16;;;;;;;5.93;3.60;;;;;;;;;;5015021;28;20034;-67
2022/09/19 08:17:43;;;;;;;5.72;3.70;;;;;;;;;;4997725;28;20528;-67
2022/09/19 08:20:09;;;;;;;8.10;3.97;;;;;;;;;;5018022;28;20065;-67
2022/09/19 08:22:40;;;;;;;7.80;3.70;;;;;;;;;;5010614;28;20021;-67
2022/09/19 08:25:09;;;;;;;7.55;4.43;;;;;;;;;;4999621;28;20034;-67
2022/09/19 08:27:38;;;;;;;5.38;4.32;;;;;;;;;;5002082;28;20108;-67
2022/09/19 08:30:06;;;;;;;6.28;3.63;;;;;;;;;;5000102;28;20534;-67
2022/09/19 08:32:33;;;;;;;8.10;3.90;;;;;;;;;;5025427;28;20029;-67
2022/09/19 08:34:59;;;;;;;9.70;4.53;;;;;;;;;;5009849;28;20022;-66
2022/09/19 08:37:26;;;;;;;8.05;4.50;;;;;;;;;;5038818;28;20482;-67
2022/09/19 08:40:38;;;;;;;11.43;5.32;;;;;;;;;;5002891;28;20125;-67
2022/09/19 08:42:45;;;;;;;12.85;3.83;;;;;;;;;;5008255;28;20030;-67
2022/09/19 08:45:22;;;;;;;6.38;3.88;;;;;;;;;;5005516;28;20092;-66
2022/09/19 08:47:50;;;;;;;7.43;3.88;;;;;;;;;;5003714;28;20490;-67
2022/09/19 08:50:22;;;;;;;5.90;4.28;;;;;;;;;;5000790;28;20032;-67
2022/09/19 08:52:51;;;;;;;6.60;3.33;;;;;;;;;;5033071;28;20383;-67
2022/09/19 08:55:26;;;;;;;6.20;4.35;;;;;;;;;;5006874;28;20038;-67
2022/09/19 08:57:57;;;;;;;11.82;4.68;;;;;;;;;;5005408;28;20076;-67
2022/09/19 09:00:26;;;;;;;6.30;3.63;;;;;;;;;;5027651;28;20501;-67
2022/09/19 09:03:04;;;;;;;5.97;3.65;;;;;;;;;;5003298;28;20101;-67
2022/09/19 09:05:44;;;;;;;6.55;3.30;;;;;;;;;;5022552;28;20026;-67
2022/09/19 09:08:25;;;;;;;4.55;3.17;;;;;;;;;;5038342;28;20029;-67
2022/09/19 09:11:13;;;;;;;6.60;3.97;;;;;;;;;;4996196;28;20133;-67
2022/09/19 09:13:39;;;;;;;14.98;3.97;;;;;;;;;;5001070;28;20030;-67
2022/09/19 09:16:12;;;;;;;7.07;3.45;;;;;;;;;;5002091;28;20413;-67
2022/09/19 09:18:38;;;;;;;5.22;3.05;;;;;;;;;;5034440;28;20113;-67
2022/09/19 09:21:08;;;;;;;8.43;4.95;;;;;;;;;;5004602;28;20038;-67
2022/09/19 09:23:36;;;;;;;5.38;2.95;;;;;;;;;;5007470;28;20031;-67
2022/09/19 09:26:23;;;;;;;6.13;3.42;;;;;;;;;;5036889;28;20429;-67
2022/09/19 09:28:55;;;;;;;8.68;2.92;;;;;;;;;;4999360;28;20041;-67
2022/09/19 09:31:28;;;;;;;7.70;3.63;;;;;;;;;;5025764;28;20116;-67
2022/09/19 09:34:27;;;;;;;7.15;2.88;;;;;;;;;;5034634;28;20045;-67
2022/09/19 09:36:59;;;;;;;6.53;2.90;;;;;;;;;;5037384;28;20431;-67
2022/09/19 09:39:57;;;;;;;5.80;2.85;;;;;;;;;;5024921;28;20033;-67
2022/09/19 09:42:26;;;;;;;3.97;2.60;;;;;;;;;;5024870;28;20034;-67
2022/09/19 09:45:20;;;;;;;9.18;2.55;;;;;;;;;;5022775;28;20034;-67
2022/09/19 09:47:51;;;;;;;5.68;2.17;;;;;;;;;;5020044;28;20156;-67
2022/09/19 09:50:26;;;;;;;4.07;2.00;;;;;;;;;;5038557;28;20018;-67
2022/09/19 09:53:00;;;;;;;4.22;1.80;;;;;;;;;;4997950;28;20030;-67
2022/09/19 09:58:26;;;;;;;6.25;1.35;;;;;;;;;;5006137;28;20034;-67
2022/09/19 10:04:17;;;;;;;4.90;1.80;;;;;;;;;;5030920;28;20097;-67
2022/09/19 10:06:52;;;;;;;6.47;2.00;;;;;;;;;;5030537;28;20477;-67
2022/09/19 10:09:24;;;;;;;7.93;3.25;;;;;;;;;;5028992;28;20140;-67
2022/09/19 10:12:08;;;;;;;9.40;2.97;;;;;;;;;;5040665;28;20432;-67
2022/09/19 10:14:38;;;;;;;5.30;2.50;;;;;;;;;;5030732;28;20017;-67
2022/09/19 10:17:27;;;;;;;9.52;2.40;;;;;;;;;;5045959;28;20053;-67
2022/09/19 10:19:57;;;;;;;7.47;2.50;;;;;;;;;;5043811;28;20064;-67
2022/09/19 10:22:24;;;;;;;6.05;2.00;;;;;;;;;;5063205;28;20036;-67
2022/09/19 10:25:01;;;;;;;3.10;1.50;;;;;;;;;;5029991;28;20520;-67
2022/09/19 10:27:32;;;;;;;5.10;1.45;;;;;;;;;;5026539;28;20128;-68
2022/09/19 10:30:16;;;;;;;2.60;1.70;;;;;;;;;;5030936;28;20508;-68
2022/09/19 10:32:44;;;;;;;4.00;1.35;;;;;;;;;;5045929;28;20059;-68
2022/09/19 10:35:37;;;;;;;3.58;1.38;;;;;;;;;;5032939;28;20024;-68
2022/09/19 10:38:14;;;;;;;7.00;1.48;;;;;;;;;;5013033;28;20107;-67
2022/09/19 10:40:49;;;;;;;3.15;1.30;;;;;;;;;;5022761;28;20061;-67
2022/09/19 10:43:23;;;;;;;1.80;1.05;;;;;;;;;;5035059;28;20030;-68
2022/09/19 10:45:50;;;;;;;5.75;1.30;;;;;;;;;;5037922;28;20030;-68
2022/09/19 10:48:26;;;;;;;5.47;1.40;;;;;;;;;;4997383;28;20027;-68
2022/09/19 10:50:53;;;;;;;2.47;1.20;;;;;;;;;;5022671;28;20037;-68
2022/09/19 10:53:25;;;;;;;2.63;1.10;;;;;;;;;;5037072;28;20022;-68
2022/09/19 10:55:52;;;;;;;3.72;1.58;;;;;;;;;;5043031;28;20037;-68
2022/09/19 10:58:22;;;;;;;4.13;1.10;;;;;;;;;;5044122;28;20113;-68
2022/09/19 11:01:01;;;;;;;1.98;1.20;;;;;;;;;;5038408;28;20042;-68
2022/09/19 11:03:39;;;;;;;4.82;1.05;;;;;;;;;;5034020;28;20042;-65
2022/09/19 11:06:05;;;;;;;4.20;1.20;;;;;;;;;;5025349;28;20097;-65
2022/09/19 11:08:42;;;;;;;4.47;1.10;;;;;;;;;;5007039;28;20419;-65
2022/09/19 11:11:36;;;;;;;4.93;1.40;;;;;;;;;;5026742;28;20048;-65
2022/09/19 11:14:15;;;;;;;2.45;0.95;;;;;;;;;;5004445;28;20033;-66
2022/09/19 11:17:02;;;;;;;2.33;1.02;;;;;;;;;;5042456;28;20482;-65
2022/09/19 11:19:35;;;;;;;5.35;1.20;;;;;;;;;;5016722;28;20026;-65
2022/09/19 11:22:02;;;;;;;;;;;;;;;;;;5010978;28;20041;-65
2022/09/19 11:24:29;;;;;;;3.75;1.35;;;;;;;;;;5007194;28;19909;-66
2022/09/19 11:26:59;;;;;;;6.75;1.70;;;;;;;;;;5012436;28;20034;-66
2022/09/19 11:29:30;;;;;;;1.73;1.00;;;;;;;;;;5022025;28;20033;-65
2022/09/19 11:32:06;;;;;;;4.40;1.00;;;;;;;;;;5010940;28;20498;-65
2022/09/19 11:34:39;;;;;;;3.97;1.05;;;;;;;;;;5014628;28;20525;-65
2022/09/19 11:37:27;;;;;;;3.35;1.10;;;;;;;;;;5010694;28;20030;-65
2022/09/19 11:40:13;;;;;;;5.68;1.15;;;;;;;;;;5035228;28;20482;-65
2022/09/19 11:42:49;;;;;;;3.88;1.35;;;;;;;;;;5044704;28;20128;-65
2022/09/19 11:45:19;;;;;;;5.70;1.08;;;;;;;;;;5032944;28;20068;-65
2022/09/19 11:47:52;;;;;;;3.22;1.10;;;;;;;;;;5032087;28;20124;-65
2022/09/19 11:50:20;;;;;;;3.78;1.20;;;;;;;;;;5030981;28;20021;-65
2022/09/19 11:52:57;;;;;;;3.08;1.20;;;;;;;;;;5032860;28;20107;-65
2022/09/19 11:55:34;;;;;;;1.98;1.20;;;;;;;;;;5012689;28;20494;-65
2022/09/19 11:58:07;;;;;;;6.07;1.70;;;;;;;;;;5012866;28;20124;-65
2022/09/19 12:00:39;;;;;;;1.85;1.40;;;;;;;;;;5012543;28;20037;-65
2022/09/19 12:03:07;;;;;;;2.80;1.10;;;;;;;;;;5012635;28;20037;-65
2022/09/19 12:05:44;;;;;;;2.65;1.10;;;;;;;;;;5011860;28;20065;-65
2022/09/19 12:08:30;;;;;;;4.28;1.08;;;;;;;;;;4992849;28;20037;-65
2022/09/19 12:11:08;;;;;;;1.40;0.93;;;;;;;;;;5009155;28;20050;-65
2022/09/19 12:13:44;;;;;;;5.78;1.33;;;;;;;;;;5009425;28;20026;-65
2022/09/19 12:16:20;;;;;;;2.65;1.48;;;;;;;;;;5008924;28;20053;-65
2022/09/19 12:18:58;;;;;;;3.65;1.45;;;;;;;;;;5009168;28;20035;-65
2022/09/19 12:21:39;;;;;;;4.25;1.20;;;;;;;;;;5008813;28;20502;-65
2022/09/19 12:26:57;;;;;;;2.55;1.20;;;;;;;;;;5009077;28;20041;-65
2022/09/19 12:29:26;;;;;;;3.58;2.03;;;;;;;;;;5008864;28;20143;-65
2022/09/19 12:31:58;;;;;;;4.18;1.20;;;;;;;;;;5008796;28;20027;-65
2022/09/19 12:34:35;;;;;;;2.50;1.25;;;;;;;;;;4992209;28;20086;-65
2022/09/19 12:37:08;;;;;;;6.75;1.80;;;;;;;;;;5018743;28;20423;-65
2022/09/19 12:39:41;;;;;;;6.25;2.30;;;;;;;;;;5025302;28;20513;-65
2022/09/19 12:42:17;;;;;;;3.08;1.50;;;;;;;;;;5028338;28;20038;-65
2022/09/19 12:44:47;;;;;;;3.22;1.30;;;;;;;;;;5011630;28;20038;-65
2022/09/19 12:47:32;;;;;;;4.30;1.50;;;;;;;;;;5011802;28;20065;-65
2022/09/19 12:50:06;;;;;;;3.67;1.55;;;;;;;;;;5011512;28;20080;-65
2022/09/19 12:52:35;;;;;;;4.85;1.30;;;;;;;;;;5012963;28;20032;-65
2022/09/19 12:55:14;;;;;;;4.40;1.85;;;;;;;;;;5013147;28;20502;-65
2022/09/19 12:57:43;;;;;;;2.00;1.13;;;;;;;;;;5013124;28;20560;-65
2022/09/19 13:00:13;;;;;;;4.57;1.40;;;;;;;;;;5012650;28;20044;-65
2022/09/19 13:02:51;;;;;;;4.45;1.20;;;;;;;;;;5012741;28;20037;-65
2022/09/19 13:05:22;;;;;;;2.78;1.23;;;;;;;;;;5012740;28;20034;-65
2022/09/19 13:07:48;;;;;;;2.75;1.13;;;;;;;;;;5012945;28;20022;-65
2022/09/19 13:10:25;;;;;;;1.73;1.10;;;;;;;;;;5012532;28;20050;-65
2022/09/19 13:12:55;;;;;;;2.40;1.33;;;;;;;;;;5012930;28;20125;-65
2022/09/19 13:15:24;;;;;;;4.75;1.30;;;;;;;;;;5012185;28;20456;-65
2022/09/19 13:23:35;;;;;;;5.05;1.13;;;;;;;;;;5012308;28;20065;-65
2022/09/19 13:26:16;;;;;;;3.30;1.30;;;;;;;;;;5012558;28;20037;-65
2022/09/19 13:28:52;;;;;;;4.78;1.38;;;;;;;;;;5012367;28;20092;-65
2022/09/19 13:31:19;;;;;;;1.92;1.02;;;;;;;;;;5012725;28;20419;-65
2022/09/19 13:33:53;;;;;;;3.90;1.20;;;;;;;;;;5012809;28;20372;-65
2022/09/19 13:36:22;;;;;;;3.80;1.30;;;;;;;;;;5012215;28;20034;-65
2022/09/19 13:38:48;;;;;;;3.95;1.20;;;;;;;;;;5012389;28;20055;-65
2022/09/19 13:41:17;;;;;;;2.60;1.30;;;;;;;;;;5012190;28;20042;-65
2022/09/19 13:43:48;;;;;;;2.67;1.30;;;;;;;;;;5012338;28;20026;-65
2022/09/19 13:46:20;;;;;;;2.17;1.40;;;;;;;;;;5012095;28;20030;-65
2022/09/19 13:49:07;;;;;;;4.53;0.90;;;;;;;;;;5012103;28;20088;-65
2022/09/19 13:51:33;;;;;;;2.10;1.33;;;;;;;;;;5011966;28;20529;-65
2022/09/19 13:54:28;;;;;;;4.45;1.98;;;;;;;;;;5012482;28;20026;-65
2022/09/19 13:57:04;;;;;;;8.48;1.63;;;;;;;;;;5012207;28;20053;-65
2022/09/19 13:59:42;;;;;;;5.40;1.23;;;;;;;;;;5011935;28;20104;-65
2022/09/19 14:02:11;;;;;;;2.45;1.15;;;;;;;;;;5012134;28;20084;-65
2022/09/19 14:05:00;;;;;;;1.50;1.05;;;;;;;;;;5012034;28;20449;-65
2022/09/19 14:07:29;;;;;;;3.40;1.30;;;;;;;;;;5011969;28;20034;-65
2022/09/19 14:09:57;;;;;;;4.72;1.40;;;;;;;;;;5011880;28;20556;-65
2022/09/19 14:12:36;;;;;;;3.17;1.60;;;;;;;;;;5011746;28;20494;-65
2022/09/19 14:15:04;;;;;;;3.78;1.20;;;;;;;;;;5012088;28;20038;-65
2022/09/19 14:17:32;;;;;;;4.15;1.42;;;;;;;;;;5011999;28;20024;-65
2022/09/19 14:20:05;;;;;;;2.30;1.20;;;;;;;;;;5012153;28;20060;-65
2022/09/19 14:22:38;;;;;;;4.47;1.70;;;;;;;;;;5011840;28;20018;-65
2022/09/19 14:25:15;;;;;;;5.85;1.55;;;;;;;;;;5011848;28;20033;-65
2022/09/19 14:28:00;;;;;;;6.55;1.27;;;;;;;;;;5011886;28;20383;-65
2022/09/19 14:30:40;;;;;;;4.05;1.25;;;;;;;;;;5014911;28;20493;-65
2022/09/19 14:33:25;;;;;;;3.15;1.38;;;;;;;;;;5015654;28;20062;-65
2022/09/19 14:35:57;;;;;;;2.60;1.13;;;;;;;;;;5015406;28;20044;-65
2022/09/19 14:38:30;;;;;;;4.63;1.88;;;;;;;;;;5015389;28;20037;-65
2022/09/19 14:40:57;;;;;;;2.55;1.67;;;;;;;;;;5015609;28;20037;-65
2022/09/19 14:43:23;;;;;;;5.13;1.35;;;;;;;;;;5015437;28;20104;-65
2022/09/19 14:45:52;;;;;;;2.92;1.20;;;;;;;;;;5013958;28;20033;-65
2022/09/19 14:48:36;;;;;;;4.00;1.40;;;;;;;;;;5015222;28;20029;-65
2022/09/19 14:51:07;;;;;;;4.35;1.20;;;;;;;;;;5015649;28;20034;-65
2022/09/19 14:53:35;;;;;;;1.75;1.10;;;;;;;;;;5015033;28;20033;-64
2022/09/19 14:56:03;;;;;;;1.58;0.90;;;;;;;;;;5015106;28;20088;-65
2022/09/19 14:58:31;;;;;;;1.98;1.20;;;;;;;;;;5014965;28;20084;-65
2022/09/19 15:01:17;;;;;;;4.28;1.60;;;;;;;;;;5015082;28;20087;-65
2022/09/19 15:03:46;;;;;;;5.63;1.10;;;;;;;;;;5013737;28;20125;-65
2022/09/19 15:06:39;;;;;;;5.63;1.42;;;;;;;;;;5015012;28;20034;-65
2022/09/19 15:09:05;;;;;;;5.32;1.10;;;;;;;;;;5012763;28;20049;-65
2022/09/19 15:11:31;;;;;;;3.08;1.30;;;;;;;;;;5014875;28;20453;-65
2022/09/19 15:13:57;;;;;;;1.63;1.30;;;;;;;;;;5008988;28;20110;-65
2022/09/19 15:16:24;;;;;;;2.55;1.10;;;;;;;;;;5037282;28;20461;-65
2022/09/19 15:18:57;;;;;;;4.03;1.10;;;;;;;;;;5020658;28;20032;-65
2022/09/19 15:21:25;;;;;;;3.22;1.20;;;;;;;;;;5024276;28;20061;-65
2022/09/19 15:23:55;;;;;;;3.15;1.38;;;;;;;;;;5024821;28;20549;-64
2022/09/19 15:26:24;;;;;;;4.50;1.35;;;;;;;;;;5020801;28;20394;-65
2022/09/19 15:29:01;;;;;;;3.58;1.23;;;;;;;;;;5023081;28;20029;-63
2022/09/19 15:31:30;;;;;;;1.60;0.85;;;;;;;;;;5022911;28;20087;-63
2022/09/19 15:34:02;;;;;;;2.30;1.25;;;;;;;;;;5024421;28;20018;-63
2022/09/19 15:36:28;;;;;;;3.67;1.10;;;;;;;;;;5020004;28;20064;-63
2022/09/19 15:38:57;;;;;;;1.80;0.98;;;;;;;;;;5020144;28;20117;-63
2022/09/19 15:41:26;;;;;;;1.40;1.30;;;;;;;;;;5016783;28;20029;-63